Time;durP1;ratioP1;P1;durP2;ratioP2;P2;SDS_P1;SDS_P2;PMS_P1;PMS_P2;Temp;Humidity;BMP_temperature;BMP_pressure;BME280_temperature;BME280_humidity;BME280_pressure;Samples;Min_cycle;Max_cycle;Signal;HPM_P1;HPM_P2
2023/05/16 00:06:27;;;;;;;0.52;0.40;;;8.70;99.90;;;;;;25967508;22;20015;-58
2023/05/16 00:16:29;;;;;;;1.25;0.40;;;8.70;99.90;;;;;;25967258;22;20004;-48
2023/05/16 00:26:30;;;;;;;0.73;0.50;;;8.50;99.90;;;;;;25966834;22;20003;-59
2023/05/16 00:36:33;;;;;;;0.80;0.40;;;8.10;99.90;;;;;;25939064;22;20376;-59
2023/05/16 00:46:35;;;;;;;2.05;0.50;;;8.00;99.90;;;;;;25938138;22;20069;-49
2023/05/16 00:56:36;;;;;;;1.05;0.50;;;8.00;99.90;;;;;;25938828;22;20011;-48
2023/05/16 01:06:38;;;;;;;0.90;0.60;;;8.50;99.90;;;;;;25965398;22;20061;-51
2023/05/16 01:17:09;;;;;;;1.02;0.45;;;8.50;99.90;;;;;;25965007;22;20497;-58
2023/05/16 01:27:12;;;;;;;3.53;0.70;;;8.30;99.90;;;;;;25965175;22;20004;-48
2023/05/16 01:37:26;;;;;;;0.60;0.40;;;8.00;99.90;;;;;;25964544;22;20034;-49
2023/05/16 01:47:32;;;;;;;1.17;0.52;;;7.80;99.90;;;;;;25986570;22;20015;-49
2023/05/16 01:57:35;;;;;;;0.95;0.50;;;7.70;99.90;;;;;;25941019;22;20007;-52
2023/05/16 02:07:36;;;;;;;2.47;0.68;;;8.00;99.90;;;;;;25945397;22;20076;-51
2023/05/16 02:17:38;;;;;;;1.95;0.60;;;7.90;99.90;;;;;;25972243;22;20027;-48
2023/05/16 02:27:41;;;;;;;0.38;0.30;;;8.00;99.90;;;;;;25971724;22;20054;-50
2023/05/16 02:37:43;;;;;;;3.15;0.60;;;8.00;99.90;;;;;;25944024;22;20011;-51
2023/05/16 02:47:44;;;;;;;0.52;0.43;;;8.10;99.90;;;;;;25970836;22;20008;-50
2023/05/16 02:57:46;;;;;;;0.90;0.57;;;7.90;99.90;;;;;;25970689;22;20007;-50
2023/05/16 03:07:47;;;;;;;0.77;0.40;;;7.90;99.90;;;;;;25971808;22;20003;-59
2023/05/16 03:17:49;;;;;;;0.73;0.50;;;7.80;99.90;;;;;;25969613;22;20085;-51
2023/05/16 03:27:51;;;;;;;0.93;0.57;;;8.00;99.90;;;;;;25969485;22;20035;-49
2023/05/16 03:37:54;;;;;;;0.30;0.30;;;8.30;99.90;;;;;;25967890;22;20095;-51
2023/05/16 03:47:56;;;;;;;3.63;0.40;;;8.40;99.90;;;;;;25971245;22;20008;-53
2023/05/16 03:57:59;;;;;;;0.45;0.40;;;8.60;99.90;;;;;;25966843;22;20043;-48
2023/05/16 04:08:01;;;;;;;0.70;0.40;;;8.70;99.90;;;;;;25967691;22;20061;-51
2023/05/16 04:18:03;;;;;;;1.65;0.30;;;8.80;99.90;;;;;;25939847;22;20033;-48
2023/05/16 04:28:05;;;;;;;0.88;0.40;;;8.90;99.90;;;;;;25966752;22;20050;-48
2023/05/16 04:38:07;;;;;;;0.57;0.40;;;9.00;99.90;;;;;;25940030;22;20003;-59
2023/05/16 04:48:10;;;;;;;0.60;0.40;;;9.00;99.90;;;;;;25965832;22;20004;-58
2023/05/16 04:58:12;;;;;;;0.40;0.30;;;8.90;99.90;;;;;;25965880;22;20022;-51
2023/05/16 05:08:14;;;;;;;0.65;0.47;;;8.90;99.90;;;;;;25965366;22;20003;-50
2023/05/16 05:18:15;;;;;;;0.65;0.30;;;8.90;99.90;;;;;;25938334;22;20507;-47
2023/05/16 05:28:17;;;;;;;0.40;0.30;;;8.90;99.90;;;;;;25965350;22;20354;-50
2023/05/16 05:38:19;;;;;;;0.88;0.60;;;9.10;99.90;;;;;;25946767;22;19996;-50
2023/05/16 05:48:21;;;;;;;1.08;0.70;;;8.80;99.90;;;;;;25973174;22;20004;-48
2023/05/16 05:58:22;;;;;;;3.28;0.55;;;8.00;99.90;;;;;;25972939;22;20000;-47
2023/05/16 06:08:24;;;;;;;1.48;0.75;;;7.40;99.90;;;;;;25971226;22;20003;-47
2023/05/16 06:18:26;;;;;;;1.80;0.85;;;7.20;99.90;;;;;;25972059;22;20007;-47
2023/05/16 06:28:28;;;;;;;2.00;0.90;;;7.00;99.90;;;;;;25971855;22;20007;-47
2023/05/16 06:38:30;;;;;;;1.25;0.93;;;6.70;99.90;;;;;;25970360;22;20049;-49
2023/05/16 06:48:31;;;;;;;1.08;0.70;;;6.60;99.90;;;;;;25970416;22;20030;-58
2023/05/16 06:58:33;;;;;;;0.88;0.55;;;7.60;99.90;;;;;;25970611;22;20007;-51
2023/05/16 07:08:35;;;;;;;1.17;0.70;;;7.60;99.90;;;;;;25970055;22;20000;-46
2023/05/16 07:18:37;;;;;;;0.80;0.50;;;7.50;99.90;;;;;;25942380;22;20008;-47
2023/05/16 07:28:39;;;;;;;0.50;0.40;;;7.40;99.90;;;;;;25969369;22;20007;-48
2023/05/16 07:38:41;;;;;;;0.50;0.40;;;8.10;99.90;;;;;;25968152;22;20004;-59
2023/05/16 07:48:42;;;;;;;0.70;0.52;;;9.10;99.90;;;;;;25968324;22;20008;-51
2023/05/16 07:58:45;;;;;;;1.38;0.50;;;9.10;99.90;;;;;;25967825;22;20008;-49
2023/05/16 08:08:46;;;;;;;2.15;0.43;;;8.70;99.90;;;;;;25967793;22;20006;-48
2023/05/16 08:18:48;;;;;;;1.88;0.73;;;8.60;99.90;;;;;;25967454;22;20320;-50
2023/05/16 08:28:49;;;;;;;1.55;0.98;;;8.30;99.90;;;;;;25967177;22;20057;-46
2023/05/16 08:38:51;;;;;;;1.63;1.38;;;7.40;99.90;;;;;;25967911;22;20062;-48
2023/05/16 08:48:55;;;;;;;3.03;1.60;;;6.80;99.90;;;;;;25966229;22;20069;-46
2023/05/16 08:58:57;;;;;;;1.75;1.33;;;6.60;99.90;;;;;;25965985;22;20423;-58
2023/05/16 09:08:59;;;;;;;1.20;1.00;;;6.70;99.90;;;;;;25964553;22;20000;-47
2023/05/16 09:19:01;;;;;;;2.28;1.60;;;7.00;99.90;;;;;;25965675;22;20462;-46
2023/05/16 09:29:12;;;;;;;1.75;1.17;;;7.00;99.90;;;;;;25965354;22;20007;-51
2023/05/16 09:39:14;;;;;;;1.42;1.10;;;7.00;99.90;;;;;;26007603;22;20012;-46
2023/05/16 09:49:16;;;;;;;1.42;0.82;;;7.10;99.90;;;;;;25937300;22;20065;-46
2023/05/16 09:59:18;;;;;;;2.50;1.02;;;7.30;99.90;;;;;;25966537;22;20004;-49
2023/05/16 10:09:21;;;;;;;1.63;1.10;;;7.10;99.90;;;;;;25963727;22;20011;-59
2023/05/16 10:19:28;;;;;;;3.35;1.00;;;7.30;99.90;;;;;;26010937;22;20004;-46
2023/05/16 10:29:31;;;;;;;1.38;0.60;;;7.80;99.90;;;;;;25971862;22;20319;-59
2023/05/16 10:39:33;;;;;;;0.73;0.50;;;8.60;99.90;;;;;;25971571;22;20069;-46
2023/05/16 10:49:39;;;;;;;1.23;0.60;;;8.90;99.90;;;;;;25943849;22;20085;-48
2023/05/16 10:59:45;;;;;;;1.58;0.80;;;9.80;99.90;;;;;;26013120;22;20015;-46
2023/05/16 11:10:09;;;;;;;1.10;0.95;;;9.70;99.90;;;;;;25985463;22;20015;-48
2023/05/16 11:20:31;;;;;;;1.55;0.80;;;9.30;99.90;;;;;;26012438;22;20054;-59
2023/05/16 11:30:32;;;;;;;1.05;0.80;;;9.70;99.90;;;;;;25968969;22;20061;-47
2023/05/16 11:40:34;;;;;;;0.98;0.80;;;9.80;99.90;;;;;;25942333;22;20003;-60
2023/05/16 11:50:36;;;;;;;1.05;0.70;;;9.50;99.90;;;;;;25968751;22;20063;-59
2023/05/16 12:00:50;;;;;;;1.20;0.68;;;9.80;99.90;;;;;;25966906;22;20012;-59
2023/05/16 12:10:52;;;;;;;1.48;0.88;;;9.30;99.90;;;;;;26009161;22;20061;-58
2023/05/16 12:20:54;;;;;;;0.98;0.85;;;9.50;99.90;;;;;;25968033;22;20023;-48
2023/05/16 12:30:56;;;;;;;1.80;0.50;;;9.30;99.90;;;;;;25967124;22;20031;-60
2023/05/16 12:40:58;;;;;;;1.83;0.93;;;9.30;99.90;;;;;;25967971;22;20007;-49
2023/05/16 12:51:17;;;;;;;2.47;1.70;;;9.00;99.90;;;;;;25968648;22;20042;-59
2023/05/16 13:01:18;;;;;;;1.05;0.90;;;8.30;99.90;;;;;;26008694;22;20308;-48
2023/05/16 13:11:20;;;;;;;1.25;0.50;;;8.50;99.90;;;;;;25964951;22;20007;-51
2023/05/16 13:21:21;;;;;;;1.27;0.60;;;9.20;99.90;;;;;;25965927;22;20010;-51
2023/05/16 13:31:23;;;;;;;0.35;0.30;;;9.80;99.90;;;;;;25965448;22;20015;-58
2023/05/16 13:41:25;;;;;;;0.30;0.30;;;10.10;99.90;;;;;;25965495;22;20324;-48
2023/05/16 13:51:26;;;;;;;2.65;0.40;;;10.60;99.90;;;;;;25966765;22;20012;-48
2023/05/16 14:01:28;;;;;;;0.50;0.40;;;10.10;99.90;;;;;;25973093;22;20008;-51
2023/05/16 14:11:30;;;;;;;0.57;0.43;;;10.20;99.90;;;;;;25971878;22;19999;-51
2023/05/16 14:21:33;;;;;;;0.80;0.50;;;10.00;99.90;;;;;;25972155;22;20038;-48
2023/05/16 14:31:37;;;;;;;0.40;0.20;;;9.70;99.90;;;;;;25971797;22;20008;-48
2023/05/16 14:41:39;;;;;;;0.60;0.40;;;9.80;99.90;;;;;;25971606;22;20034;-58
2023/05/16 14:51:43;;;;;;;1.08;0.20;;;9.80;99.90;;;;;;25943610;22;20085;-47
2023/05/16 15:01:45;;;;;;;0.20;0.20;;;9.90;99.90;;;;;;25970499;22;20034;-50
2023/05/16 15:11:47;;;;;;;0.40;0.20;;;9.90;99.90;;;;;;25970681;22;20010;-50
2023/05/16 15:21:48;;;;;;;0.30;0.20;;;9.80;99.90;;;;;;25970249;22;20015;-58
2023/05/16 15:31:50;;;;;;;1.02;0.35;;;9.80;99.90;;;;;;25969236;22;20004;-59
2023/05/16 15:41:52;;;;;;;0.20;0.20;;;9.80;99.90;;;;;;25971018;22;20003;-59
2023/05/16 15:51:54;;;;;;;0.20;0.20;;;9.80;99.90;;;;;;25968371;22;20085;-48
2023/05/16 16:01:56;;;;;;;0.10;0.10;;;9.80;99.90;;;;;;25966883;22;20061;-51
2023/05/16 16:11:58;;;;;;;0.55;0.10;;;9.90;99.90;;;;;;25967088;22;20082;-50
2023/05/16 16:22:00;;;;;;;0.10;0.10;;;9.80;99.90;;;;;;25964744;22;20008;-49
2023/05/16 16:32:02;;;;;;;1.45;0.28;;;9.90;99.90;;;;;;25965506;22;20004;-46
2023/05/16 16:42:04;;;;;;;0.65;0.15;;;10.00;99.90;;;;;;25966760;22;20004;-58
2023/05/16 16:52:06;;;;;;;0.20;0.10;;;10.00;99.90;;;;;;25964989;22;20011;-51
2023/05/16 17:02:08;;;;;;;0.20;0.13;;;10.00;99.90;;;;;;25965089;22;20065;-49
2023/05/16 17:12:17;;;;;;;1.38;0.10;;;9.90;99.90;;;;;;25964753;22;20509;-51
2023/05/16 17:22:20;;;;;;;0.10;0.10;;;10.10;99.90;;;;;;26006662;22;20103;-51
2023/05/16 17:32:22;;;;;;;0.40;0.17;;;10.30;99.90;;;;;;25972014;22;20008;-50
2023/05/16 17:42:24;;;;;;;0.17;0.10;;;10.20;99.90;;;;;;25971610;22;20000;-58
2023/05/16 17:52:26;;;;;;;0.17;0.10;;;9.90;99.90;;;;;;25971973;22;20513;-49
2023/05/16 18:02:27;;;;;;;0.77;0.20;;;9.70;99.90;;;;;;25971762;22;20012;-50
2023/05/16 18:12:30;;;;;;;0.28;0.20;;;9.60;99.90;;;;;;25971905;22;20008;-50
2023/05/16 18:22:31;;;;;;;0.30;0.17;;;9.50;99.90;;;;;;25971144;22;20057;-58
2023/05/16 18:32:35;;;;;;;0.80;0.20;;;9.50;99.90;;;;;;25970688;22;20007;-54
2023/05/16 18:42:37;;;;;;;0.20;0.20;;;9.40;99.90;;;;;;25969339;22;20011;-58
2023/05/16 18:52:39;;;;;;;0.17;0.10;;;9.30;99.90;;;;;;25969631;22;20012;-58
2023/05/16 19:02:41;;;;;;;1.38;0.10;;;9.30;99.90;;;;;;25969570;22;20015;-58
2023/05/16 19:12:45;;;;;;;0.10;0.10;;;9.30;99.90;;;;;;25968351;22;20000;-48
2023/05/16 19:22:47;;;;;;;0.20;0.10;;;9.40;99.90;;;;;;25968218;22;20003;-58
2023/05/16 19:32:50;;;;;;;0.25;0.10;;;9.50;99.90;;;;;;25967007;22;20008;-58
2023/05/16 19:42:52;;;;;;;0.10;0.10;;;9.40;99.90;;;;;;25968026;22;20380;-58
2023/05/16 19:52:54;;;;;;;0.17;0.00;;;9.30;99.90;;;;;;25964661;22;20011;-48
2023/05/16 20:02:55;;;;;;;0.10;0.00;;;9.10;99.90;;;;;;25967137;22;20023;-49
2023/05/16 20:12:57;;;;;;;0.10;0.05;;;8.50;99.90;;;;;;25940774;22;20004;-51
2023/05/16 20:22:59;;;;;;;0.30;0.00;;;8.00;99.90;;;;;;25966056;22;20057;-58
2023/05/16 20:33:01;;;;;;;0.20;0.00;;;7.70;99.90;;;;;;25965601;22;20007;-46
2023/05/16 20:43:03;;;;;;;0.10;0.10;;;7.70;99.90;;;;;;25967464;22;19999;-58
2023/05/16 20:53:05;;;;;;;0.08;0.00;;;7.80;99.90;;;;;;26007506;22;20386;-58
2023/05/16 21:03:07;;;;;;;0.00;0.00;;;8.00;99.90;;;;;;25964836;22;20007;-50
2023/05/16 21:13:09;;;;;;;0.55;0.00;;;8.10;99.90;;;;;;25937675;22;20030;-58
2023/05/16 21:23:11;;;;;;;0.00;0.00;;;8.20;99.90;;;;;;25964108;22;20008;-49
2023/05/16 21:33:13;;;;;;;0.10;0.00;;;8.40;99.90;;;;;;25964373;22;20012;-58
2023/05/16 21:43:15;;;;;;;0.00;0.00;;;8.70;99.90;;;;;;25963658;22;20328;-47
2023/05/16 21:53:17;;;;;;;0.00;0.00;;;8.70;99.90;;;;;;26006051;22;20015;-50
2023/05/16 22:03:20;;;;;;;0.00;0.00;;;8.60;99.90;;;;;;25963711;22;20332;-50
2023/05/16 22:13:21;;;;;;;0.45;0.00;;;8.70;99.90;;;;;;25966052;22;20026;-47
2023/05/16 22:23:23;;;;;;;1.92;0.00;;;8.70;99.90;;;;;;25971215;22;20012;-51
2023/05/16 22:33:25;;;;;;;0.08;0.00;;;8.60;99.90;;;;;;25970928;22;20003;-46
2023/05/16 22:43:26;;;;;;;0.05;0.00;;;8.50;99.90;;;;;;25970231;22;20427;-50
2023/05/16 22:53:28;;;;;;;0.10;0.00;;;8.60;99.90;;;;;;26011952;22;20011;-49
2023/05/16 23:03:30;;;;;;;0.00;0.00;;;8.90;99.90;;;;;;25969591;22;20004;-48
2023/05/16 23:13:32;;;;;;;0.43;0.00;;;8.80;99.90;;;;;;25969239;22;20004;-48
2023/05/16 23:23:33;;;;;;;0.03;0.00;;;9.00;99.90;;;;;;25968682;22;20003;-47
2023/05/16 23:33:35;;;;;;;0.77;0.00;;;8.90;99.90;;;;;;25968384;22;20030;-50
2023/05/16 23:43:37;;;;;;;0.20;0.00;;;8.80;99.90;;;;;;25967797;22;20011;-54
2023/05/16 23:53:38;;;;;;;2.05;0.00;;;8.80;99.90;;;;;;25967494;22;20011;-49
